createdAt,value
2023-02-19T00:00:06.331Z,58.71
2023-02-19T00:01:06.298Z,57.42
2023-02-19T00:02:06.283Z,57.49
2023-02-19T00:03:06.314Z,57.95
2023-02-19T00:04:06.291Z,58.57
2023-02-19T00:05:06.321Z,58.52
2023-02-19T00:06:06.238Z,58.97
2023-02-19T00:07:06.231Z,59.01
2023-02-19T00:08:06.228Z,58.64
2023-02-19T00:09:06.236Z,59.52
2023-02-19T00:10:06.201Z,60.29
2023-02-19T00:11:06.195Z,59.28
2023-02-19T00:12:06.292Z,59.09
2023-02-19T00:13:06.173Z,58.92
2023-02-19T00:14:06.221Z,59.05
2023-02-19T00:15:06.151Z,58.52
2023-02-19T00:16:06.237Z,58.03
2023-02-19T00:17:06.160Z,59.33
2023-02-19T00:18:06.136Z,57.81
2023-02-19T00:19:06.141Z,57.68
2023-02-19T00:20:06.103Z,60.02
2023-02-19T00:21:06.101Z,57.96
2023-02-19T00:22:06.085Z,59.03
2023-02-19T00:23:06.080Z,58.02
2023-02-19T00:24:06.156Z,57.61
2023-02-19T00:25:06.092Z,57.83
2023-02-19T00:26:17.514Z,57.76
2023-02-19T00:27:08.031Z,59.81
2023-02-19T00:28:06.051Z,58.40
2023-02-19T00:29:06.047Z,57.38
2023-02-19T00:30:06.028Z,57.89
2023-02-19T00:31:06.131Z,59.26
2023-02-19T00:32:06.031Z,58.69
2023-02-19T00:33:05.978Z,57.85
2023-02-19T00:34:06.037Z,59.16
2023-02-19T00:35:05.970Z,56.90
2023-02-19T00:36:05.963Z,55.15
2023-02-19T00:37:05.941Z,56.43
2023-02-19T00:38:05.937Z,56.03
2023-02-19T00:39:05.948Z,56.07
2023-02-19T00:40:05.950Z,57.91
2023-02-19T00:41:05.907Z,57.21
2023-02-19T00:42:05.900Z,56.41
2023-02-19T00:43:05.885Z,57.17
2023-02-19T00:44:05.907Z,57.02
2023-02-19T00:45:05.880Z,58.00
2023-02-19T00:46:05.884Z,57.15
2023-02-19T00:47:05.851Z,56.73
2023-02-19T00:48:05.838Z,56.55
2023-02-19T00:49:05.909Z,56.09
2023-02-19T00:50:05.820Z,55.75
2023-02-19T00:51:05.810Z,57.27
2023-02-19T00:52:05.803Z,58.70
2023-02-19T00:53:05.799Z,56.86
2023-02-19T00:54:05.876Z,56.83
2023-02-19T00:55:05.766Z,57.49
2023-02-19T00:56:05.764Z,57.28
2023-02-19T00:57:05.749Z,57.33
2023-02-19T00:58:05.749Z,58.66
2023-02-19T00:59:05.761Z,58.51
2023-02-19T01:00:05.722Z,57.52
2023-02-19T01:01:05.757Z,56.90
2023-02-19T01:02:05.705Z,57.52
2023-02-19T01:03:05.694Z,56.25
2023-02-19T01:04:06.879Z,57.14
2023-02-19T01:05:06.675Z,58.09
2023-02-19T01:06:05.663Z,57.08
2023-02-19T01:07:05.651Z,57.43
2023-02-19T01:08:05.648Z,57.14
2023-02-19T01:09:05.650Z,55.52
2023-02-19T01:10:05.623Z,55.78
2023-02-19T01:11:05.616Z,55.73
2023-02-19T01:12:05.600Z,56.06
2023-02-19T01:13:05.590Z,57.35
2023-02-19T01:14:05.596Z,58.01
2023-02-19T01:15:05.583Z,57.03
2023-02-19T01:16:05.624Z,57.35
2023-02-19T01:17:05.560Z,57.56
2023-02-19T01:18:05.552Z,58.20
2023-02-19T01:19:05.552Z,56.99
2023-02-19T01:20:05.524Z,58.00
2023-02-19T01:21:05.518Z,58.81
2023-02-19T01:22:05.512Z,57.89
2023-02-19T01:23:05.488Z,56.18
2023-02-19T01:24:05.515Z,58.29
2023-02-19T01:25:05.478Z,56.58
2023-02-19T01:26:05.459Z,56.46
2023-02-19T01:27:05.460Z,58.14
2023-02-19T01:28:05.447Z,56.35
2023-02-19T01:29:05.463Z,57.75
2023-02-19T01:30:05.469Z,57.64
2023-02-19T01:31:05.535Z,57.35
2023-02-19T01:32:05.518Z,57.29
2023-02-19T01:33:05.393Z,56.82
2023-02-19T01:34:05.418Z,57.67
2023-02-19T01:35:05.375Z,56.24
2023-02-19T01:36:05.361Z,55.91
2023-02-19T01:37:05.353Z,56.30
2023-02-19T01:38:05.402Z,56.92
2023-02-19T01:39:05.362Z,57.81
2023-02-19T01:40:05.335Z,58.85
2023-02-19T01:41:05.329Z,57.57
2023-02-19T01:42:05.308Z,56.31
2023-02-19T01:43:05.300Z,57.56
2023-02-19T01:44:05.308Z,56.95
2023-02-19T01:45:05.284Z,56.70
2023-02-19T01:46:05.271Z,58.41
2023-02-19T01:47:05.276Z,56.24
2023-02-19T01:48:05.249Z,55.94
2023-02-19T01:49:05.281Z,58.11
2023-02-19T01:50:05.224Z,57.08
2023-02-19T01:51:05.219Z,58.49
2023-02-19T01:52:05.230Z,56.06
2023-02-19T01:53:05.197Z,56.76
2023-02-19T01:54:05.224Z,56.27
2023-02-19T01:55:05.198Z,56.68
2023-02-19T01:56:05.171Z,56.15
2023-02-19T01:57:05.187Z,57.19
2023-02-19T01:58:05.161Z,57.38
2023-02-19T01:59:05.165Z,56.07
2023-02-19T02:00:05.139Z,55.65
2023-02-19T02:01:05.242Z,57.38
2023-02-19T02:02:05.166Z,57.40
2023-02-19T02:03:05.104Z,57.05
2023-02-19T02:04:05.114Z,57.10
2023-02-19T02:05:05.084Z,57.67
2023-02-19T02:06:05.079Z,57.11
2023-02-19T02:07:05.066Z,57.16
2023-02-19T02:08:05.058Z,58.04
2023-02-19T02:09:05.078Z,57.79
2023-02-19T02:10:05.062Z,59.31
2023-02-19T02:11:05.024Z,56.97
2023-02-19T02:12:05.014Z,56.59
2023-02-19T02:13:05.058Z,56.78
2023-02-19T02:14:05.002Z,56.58
2023-02-19T02:15:05.134Z,58.78
2023-02-19T02:16:05.022Z,59.05
2023-02-19T02:17:04.963Z,58.43
2023-02-19T02:18:04.974Z,58.61
2023-02-19T02:19:04.989Z,56.80
2023-02-19T02:20:04.935Z,57.17
2023-02-19T02:21:04.926Z,57.29
2023-02-19T02:22:04.927Z,57.65
2023-02-19T02:23:04.915Z,58.15
2023-02-19T02:24:04.933Z,60.16
2023-02-19T02:25:04.885Z,59.91
2023-02-19T02:26:04.881Z,59.40
2023-02-19T02:27:04.869Z,57.14
2023-02-19T02:28:04.872Z,55.95
2023-02-19T02:29:04.885Z,56.92
2023-02-19T02:30:04.890Z,58.09
2023-02-19T02:31:04.912Z,58.76
2023-02-19T02:32:04.862Z,59.28
2023-02-19T02:33:04.813Z,57.75
2023-02-19T02:34:04.802Z,58.03
2023-02-19T02:35:04.828Z,58.56
2023-02-19T02:36:04.820Z,59.00
2023-02-19T02:37:04.766Z,57.47
2023-02-19T02:38:04.775Z,58.82
2023-02-19T02:39:04.772Z,58.43
2023-02-19T02:40:04.763Z,58.43
2023-02-19T02:41:04.742Z,58.74
2023-02-19T02:42:04.760Z,58.76
2023-02-19T02:43:04.734Z,57.84
2023-02-19T02:44:04.743Z,59.34
2023-02-19T02:45:04.697Z,56.02
2023-02-19T02:46:05.758Z,58.60
2023-02-19T02:47:04.683Z,57.01
2023-02-19T02:48:04.667Z,57.55
2023-02-19T02:49:04.683Z,57.01
2023-02-19T02:50:04.711Z,59.04
2023-02-19T02:51:04.646Z,58.68
2023-02-19T02:52:04.635Z,57.34
2023-02-19T02:53:04.626Z,58.38
2023-02-19T02:54:04.626Z,56.68
2023-02-19T02:55:04.606Z,57.86
2023-02-19T02:56:04.585Z,57.84
2023-02-19T02:57:04.590Z,57.43
2023-02-19T02:58:04.573Z,58.82
2023-02-19T02:59:04.604Z,57.52
2023-02-19T03:00:04.572Z,56.02
2023-02-19T03:01:04.580Z,55.67
2023-02-19T03:02:04.581Z,56.77
2023-02-19T03:03:04.528Z,56.22
2023-02-19T03:04:04.547Z,56.05
2023-02-19T03:05:04.511Z,55.96
2023-02-19T03:06:04.499Z,57.56
2023-02-19T03:07:04.496Z,56.71
2023-02-19T03:08:04.489Z,56.20
2023-02-19T03:09:04.466Z,56.64
2023-02-19T03:10:04.487Z,57.82
2023-02-19T03:11:04.445Z,57.58
2023-02-19T03:12:04.468Z,56.89
2023-02-19T03:13:04.430Z,56.95
2023-02-19T03:14:04.417Z,57.17
2023-02-19T03:15:04.420Z,57.74
2023-02-19T03:16:04.486Z,57.19
2023-02-19T03:17:04.423Z,57.59
2023-02-19T03:18:04.380Z,58.53
2023-02-19T03:19:04.381Z,57.92
2023-02-19T03:20:04.368Z,57.74
2023-02-19T03:21:04.357Z,56.67
2023-02-19T03:22:04.358Z,58.65
2023-02-19T03:23:04.333Z,56.31
2023-02-19T03:24:04.322Z,57.33
2023-02-19T03:25:04.305Z,57.02
2023-02-19T03:26:04.311Z,56.43
2023-02-19T03:27:04.312Z,56.97
2023-02-19T03:28:04.281Z,58.19
2023-02-19T03:29:04.286Z,57.19
2023-02-19T03:30:04.330Z,57.31
2023-02-19T03:31:05.281Z,59.80
2023-02-19T03:32:04.372Z,59.60
2023-02-19T03:33:04.229Z,58.76
2023-02-19T03:34:04.217Z,60.66
2023-02-19T03:35:04.231Z,56.97
2023-02-19T03:36:04.198Z,57.46
2023-02-19T03:37:04.189Z,58.56
2023-02-19T03:38:04.183Z,56.69
2023-02-19T03:39:04.174Z,56.24
2023-02-19T03:40:04.180Z,55.88
2023-02-19T03:41:04.150Z,57.45
2023-02-19T03:42:04.164Z,56.75
2023-02-19T03:43:30.028Z,56.82
2023-02-19T03:44:04.120Z,54.45
2023-02-19T03:45:04.131Z,55.10
2023-02-19T03:46:04.184Z,55.19
2023-02-19T03:47:04.098Z,57.73
2023-02-19T03:48:04.102Z,58.30
2023-02-19T03:49:04.080Z,58.01
2023-02-19T03:50:04.085Z,58.60
2023-02-19T03:51:04.054Z,58.78
2023-02-19T03:52:04.039Z,56.97
2023-02-19T03:53:04.034Z,57.87
2023-02-19T03:54:04.036Z,57.04
2023-02-19T03:55:04.116Z,57.66
2023-02-19T03:56:04.001Z,58.41
2023-02-19T03:57:03.984Z,58.84
2023-02-19T03:58:04.979Z,59.22
2023-02-19T03:59:03.972Z,55.40
2023-02-19T04:00:03.998Z,56.10
2023-02-19T04:01:03.957Z,58.54
2023-02-19T04:02:03.949Z,60.31
2023-02-19T04:03:03.956Z,61.99
2023-02-19T04:04:03.926Z,60.76
2023-02-19T04:05:03.939Z,62.28
2023-02-19T04:06:03.904Z,60.63
2023-02-19T04:07:03.913Z,61.55
2023-02-19T04:08:03.894Z,64.23
2023-02-19T04:09:03.880Z,63.85
2023-02-19T04:10:03.883Z,65.03
2023-02-19T04:11:03.856Z,66.28
2023-02-19T04:12:03.866Z,62.10
2023-02-19T04:13:03.845Z,63.17
2023-02-19T04:14:03.848Z,66.96
2023-02-19T04:15:03.859Z,63.71
2023-02-19T04:16:03.846Z,64.05
2023-02-19T04:17:03.815Z,67.55
2023-02-19T04:18:03.803Z,65.27
2023-02-19T04:19:03.787Z,61.95
2023-02-19T04:20:03.805Z,61.88
2023-02-19T04:21:03.769Z,62.51
2023-02-19T04:22:03.759Z,62.26
2023-02-19T04:23:03.758Z,63.86
2023-02-19T04:24:03.733Z,60.51
2023-02-19T04:25:03.759Z,65.08
2023-02-19T04:26:03.711Z,66.63
2023-02-19T04:27:03.712Z,61.74
2023-02-19T04:28:03.717Z,63.09
2023-02-19T04:29:03.692Z,61.94
2023-02-19T04:30:03.722Z,64.94
2023-02-19T04:31:03.729Z,62.78
2023-02-19T04:32:03.712Z,61.21
2023-02-19T04:33:03.644Z,62.96
2023-02-19T04:34:03.632Z,64.76
2023-02-19T04:35:03.648Z,63.26
2023-02-19T04:36:03.612Z,62.29
2023-02-19T04:37:03.613Z,61.30
2023-02-19T04:38:03.592Z,66.80
2023-02-19T04:39:03.572Z,61.97
2023-02-19T04:40:03.606Z,63.02
2023-02-19T04:41:03.561Z,61.05
2023-02-19T04:42:03.559Z,67.80
2023-02-19T04:43:03.567Z,66.65
2023-02-19T04:44:03.532Z,67.00
2023-02-19T04:45:03.526Z,63.67
2023-02-19T04:46:03.565Z,61.40
2023-02-19T04:47:03.516Z,65.09
2023-02-19T04:48:03.562Z,66.18
2023-02-19T04:49:03.491Z,67.42
2023-02-19T04:50:03.506Z,68.13
2023-02-19T04:51:03.461Z,66.19
2023-02-19T04:52:03.464Z,64.89
2023-02-19T04:53:03.514Z,63.46
2023-02-19T04:54:03.438Z,64.82
2023-02-19T04:55:03.470Z,65.97
2023-02-19T04:56:03.412Z,66.04
2023-02-19T04:57:03.414Z,65.19
2023-02-19T04:58:03.468Z,58.99
2023-02-19T04:59:03.383Z,60.34
2023-02-19T05:00:03.395Z,63.91
2023-02-19T05:01:03.377Z,63.66
2023-02-19T05:02:03.986Z,63.62
2023-02-19T05:03:03.361Z,62.50
2023-02-19T05:04:03.421Z,64.14
2023-02-19T05:05:03.360Z,62.20
2023-02-19T05:06:03.326Z,65.15
2023-02-19T05:07:03.336Z,63.23
2023-02-19T05:08:03.302Z,63.42
2023-02-19T05:09:03.294Z,65.50
2023-02-19T05:10:03.333Z,63.09
2023-02-19T05:11:03.278Z,60.89
2023-02-19T05:12:03.288Z,63.23
2023-02-19T05:13:03.248Z,65.90
2023-02-19T05:14:03.242Z,63.53
2023-02-19T05:15:03.246Z,63.30
2023-02-19T05:16:03.291Z,63.23
2023-02-19T05:17:03.214Z,61.48
2023-02-19T05:18:03.224Z,63.96
2023-02-19T05:19:03.218Z,63.77
2023-02-19T05:20:03.221Z,60.67
2023-02-19T05:21:03.191Z,60.40
2023-02-19T05:22:03.159Z,63.72
2023-02-19T05:23:03.159Z,62.64
2023-02-19T05:24:03.147Z,62.48
2023-02-19T05:25:03.169Z,63.29
2023-02-19T05:26:03.130Z,62.89
2023-02-19T05:27:03.117Z,61.04
2023-02-19T05:28:03.100Z,61.80
2023-02-19T05:29:03.102Z,64.48
2023-02-19T05:30:03.146Z,62.74
2023-02-19T05:31:03.118Z,62.64
2023-02-19T05:32:03.080Z,60.39
2023-02-19T05:33:03.054Z,61.23
2023-02-19T05:34:03.052Z,60.32
2023-02-19T05:35:03.055Z,62.77
2023-02-19T05:36:03.040Z,61.05
2023-02-19T05:37:03.015Z,60.85
2023-02-19T05:38:03.017Z,64.07
2023-02-19T05:39:03.028Z,64.28
2023-02-19T05:40:03.115Z,61.82
2023-02-19T05:41:03.001Z,62.52
2023-02-19T05:42:02.986Z,61.14
2023-02-19T05:43:02.973Z,63.61
2023-02-19T05:44:02.970Z,65.80
2023-02-19T05:45:02.946Z,64.96
2023-02-19T05:46:02.991Z,66.14
2023-02-19T05:47:02.941Z,64.21
2023-02-19T05:48:02.921Z,64.15
2023-02-19T05:49:02.907Z,66.35
2023-02-19T05:50:02.897Z,62.23
2023-02-19T05:51:02.916Z,63.86
2023-02-19T05:52:02.885Z,66.53
2023-02-19T05:53:02.879Z,61.49
2023-02-19T05:54:02.859Z,63.37
2023-02-19T05:55:02.853Z,62.28
2023-02-19T05:56:02.892Z,61.05
2023-02-19T05:57:02.839Z,62.86
2023-02-19T05:58:02.822Z,65.44
2023-02-19T05:59:02.814Z,63.93
2023-02-19T06:00:02.807Z,64.24
2023-02-19T06:01:02.819Z,62.09
2023-02-19T06:02:02.776Z,62.25
2023-02-19T06:03:02.817Z,63.61
2023-02-19T06:04:02.778Z,63.24
2023-02-19T06:05:02.760Z,61.82
2023-02-19T06:06:02.768Z,63.69
2023-02-19T06:07:02.745Z,64.17
2023-02-19T06:08:02.722Z,63.71
2023-02-19T06:09:02.718Z,60.39
2023-02-19T06:10:02.703Z,65.11
2023-02-19T06:11:02.728Z,62.04
2023-02-19T06:12:02.677Z,59.53
2023-02-19T06:13:02.693Z,61.61
2023-02-19T06:14:02.661Z,61.49
2023-02-19T06:15:03.662Z,61.93
2023-02-19T06:16:02.713Z,62.38
2023-02-19T06:17:02.641Z,65.03
2023-02-19T06:18:02.626Z,62.24
2023-02-19T06:19:02.625Z,60.14
2023-02-19T06:20:02.619Z,65.35
2023-02-19T06:21:02.619Z,67.14
2023-02-19T06:22:02.596Z,63.10
2023-02-19T06:23:02.587Z,64.20
2023-02-19T06:24:02.575Z,63.05
2023-02-19T06:25:02.571Z,64.05
2023-02-19T06:26:02.606Z,63.71
2023-02-19T06:27:02.546Z,66.12
2023-02-19T06:28:02.538Z,63.08
2023-02-19T06:29:02.580Z,62.98
2023-02-19T06:30:02.597Z,62.25
2023-02-19T06:31:02.553Z,60.84
2023-02-19T06:32:02.651Z,62.36
2023-02-19T06:33:02.492Z,64.57
2023-02-19T06:34:02.488Z,66.56
2023-02-19T06:35:02.472Z,62.52
2023-02-19T06:36:02.515Z,60.79
2023-02-19T06:37:02.467Z,63.02
2023-02-19T06:38:02.437Z,65.40
2023-02-19T06:39:02.432Z,66.33
2023-02-19T06:40:03.425Z,64.67
2023-02-19T06:41:02.444Z,65.16
2023-02-19T06:42:02.427Z,65.49
2023-02-19T06:43:02.402Z,68.24
2023-02-19T06:44:02.389Z,65.68
2023-02-19T06:45:02.379Z,65.90
2023-02-19T06:46:02.396Z,63.62
2023-02-19T06:47:02.355Z,63.34
2023-02-19T06:48:02.357Z,66.08
2023-02-19T06:49:02.334Z,65.30
2023-02-19T06:50:02.332Z,65.42
2023-02-19T06:51:02.333Z,65.01
2023-02-19T06:52:02.303Z,67.16
2023-02-19T06:53:02.316Z,66.87
2023-02-19T06:54:02.312Z,65.13
2023-02-19T06:55:02.275Z,65.22
2023-02-19T06:56:02.306Z,66.09
2023-02-19T06:57:02.274Z,65.35
2023-02-19T06:58:02.245Z,66.14
2023-02-19T06:59:02.239Z,66.48
2023-02-19T07:00:02.221Z,65.77
2023-02-19T07:01:02.334Z,64.95
2023-02-19T07:02:02.207Z,64.23
2023-02-19T07:03:03.920Z,65.93
2023-02-19T07:04:02.230Z,64.26
2023-02-19T07:05:02.171Z,65.72
2023-02-19T07:06:02.195Z,63.66
2023-02-19T07:07:02.157Z,63.06
2023-02-19T07:08:02.147Z,64.56
2023-02-19T07:09:02.129Z,62.52
2023-02-19T07:10:02.127Z,61.66
2023-02-19T07:11:02.134Z,63.01
2023-02-19T07:12:02.110Z,64.39
2023-02-19T07:13:02.112Z,65.37
2023-02-19T07:14:02.084Z,64.84
2023-02-19T07:15:02.086Z,64.83
2023-02-19T07:16:02.207Z,63.96
2023-02-19T07:17:02.071Z,65.12
2023-02-19T07:18:02.051Z,64.05
2023-02-19T07:19:02.034Z,63.02
2023-02-19T07:20:02.038Z,65.36
2023-02-19T07:21:02.025Z,64.41
2023-02-19T07:22:03.001Z,67.57
2023-02-19T07:23:02.007Z,63.63
2023-02-19T07:24:01.979Z,66.11
2023-02-19T07:25:01.971Z,64.01
2023-02-19T07:26:02.021Z,64.59
2023-02-19T07:27:01.953Z,65.94
2023-02-19T07:28:01.948Z,66.60
2023-02-19T07:29:01.939Z,64.51
2023-02-19T07:30:02.010Z,64.68
2023-02-19T07:31:01.972Z,65.70
2023-02-19T07:32:01.967Z,66.80
2023-02-19T07:33:01.915Z,67.41
2023-02-19T07:34:01.890Z,68.45
2023-02-19T07:35:01.894Z,67.81
2023-02-19T07:36:01.890Z,65.55
2023-02-19T07:37:02.884Z,64.98
2023-02-19T07:38:01.859Z,66.88
2023-02-19T07:39:01.855Z,66.00
2023-02-19T07:40:01.823Z,65.62
2023-02-19T07:41:01.845Z,66.86
2023-02-19T07:42:01.811Z,66.35
2023-02-19T07:43:01.806Z,66.30
2023-02-19T07:44:01.810Z,67.85
2023-02-19T07:45:01.790Z,67.67
2023-02-19T07:46:01.830Z,65.69
2023-02-19T07:47:01.766Z,63.73
2023-02-19T07:48:01.786Z,65.09
2023-02-19T07:49:01.749Z,68.21
2023-02-19T07:50:01.764Z,65.83
2023-02-19T07:51:01.765Z,66.31
2023-02-19T07:52:01.740Z,69.28
2023-02-19T07:53:01.714Z,66.89
2023-02-19T07:54:01.715Z,65.18
2023-02-19T07:55:01.708Z,65.13
2023-02-19T07:56:01.714Z,66.46
2023-02-19T07:57:01.692Z,67.37
2023-02-19T07:58:01.685Z,67.33
2023-02-19T07:59:01.662Z,68.28
2023-02-19T08:00:01.674Z,68.60
2023-02-19T08:01:01.731Z,68.02
2023-02-19T08:02:01.627Z,66.63
2023-02-19T08:03:01.687Z,66.80
2023-02-19T08:04:01.606Z,65.85
2023-02-19T08:05:01.612Z,66.10
2023-02-19T08:06:01.604Z,66.16
2023-02-19T08:07:01.581Z,66.33
2023-02-19T08:08:01.579Z,66.72
2023-02-19T08:09:01.556Z,67.58
2023-02-19T08:10:01.565Z,67.59
2023-02-19T08:11:01.552Z,67.04
2023-02-19T08:12:01.534Z,68.58
2023-02-19T08:13:01.610Z,66.90
2023-02-19T08:14:01.506Z,67.61
2023-02-19T08:15:01.498Z,68.22
2023-02-19T08:16:15.653Z,65.96
2023-02-19T08:17:03.577Z,65.68
2023-02-19T08:18:01.455Z,67.70
2023-02-19T08:19:01.454Z,65.69
2023-02-19T08:20:01.456Z,67.45
2023-02-19T08:21:01.446Z,65.87
2023-02-19T08:22:01.431Z,66.06
2023-02-19T08:23:01.407Z,67.95
2023-02-19T08:24:01.425Z,64.65
2023-02-19T08:25:01.424Z,67.29
2023-02-19T08:26:01.377Z,67.42
2023-02-19T08:27:01.374Z,67.79
2023-02-19T08:28:01.371Z,69.09
2023-02-19T08:29:01.352Z,69.21
2023-02-19T08:30:01.376Z,69.27
2023-02-19T08:31:01.385Z,67.55
2023-02-19T08:32:01.353Z,67.70
2023-02-19T08:33:02.212Z,67.12
2023-02-19T08:34:02.303Z,67.12
2023-02-19T08:35:01.284Z,67.58
2023-02-19T08:36:01.294Z,68.74
2023-02-19T08:37:01.269Z,67.37
2023-02-19T08:38:01.257Z,65.55
2023-02-19T08:39:01.248Z,66.70
2023-02-19T08:40:01.249Z,68.99
2023-02-19T08:41:01.244Z,67.81
2023-02-19T08:42:01.219Z,67.02
2023-02-19T08:43:01.218Z,67.36
2023-02-19T08:44:01.207Z,69.61
2023-02-19T08:45:01.214Z,68.80
2023-02-19T08:46:01.200Z,67.37
2023-02-19T08:47:01.180Z,67.24
2023-02-19T08:48:01.162Z,66.80
2023-02-19T08:49:01.150Z,66.61
2023-02-19T08:50:01.158Z,68.17
2023-02-19T08:51:01.132Z,69.70
2023-02-19T08:52:01.125Z,68.76
2023-02-19T08:53:01.117Z,68.20
2023-02-19T08:54:01.116Z,68.53
2023-02-19T08:55:01.178Z,68.86
2023-02-19T08:56:01.097Z,67.64
2023-02-19T08:57:01.079Z,68.51
2023-02-19T08:58:01.065Z,66.92
2023-02-19T08:59:01.046Z,65.98
2023-02-19T09:00:01.056Z,65.69
2023-02-19T09:01:01.103Z,67.62
2023-02-19T09:02:01.023Z,67.93
2023-02-19T09:03:01.010Z,65.68
2023-02-19T09:04:01.100Z,67.18
2023-02-19T09:05:01.019Z,65.90
2023-02-19T09:06:02.002Z,65.90
2023-02-19T09:07:00.966Z,66.51
2023-02-19T09:08:00.959Z,67.52
2023-02-19T09:09:00.951Z,67.41
2023-02-19T09:10:00.953Z,67.19
2023-02-19T09:11:00.952Z,67.34
2023-02-19T09:12:00.937Z,68.45
2023-02-19T09:13:00.907Z,68.53
2023-02-19T09:14:01.909Z,69.40
2023-02-19T09:15:00.931Z,68.12
2023-02-19T09:16:00.961Z,70.47
2023-02-19T09:17:00.874Z,69.74
2023-02-19T09:18:00.869Z,68.27
2023-02-19T09:19:00.863Z,68.85
2023-02-19T09:20:00.875Z,69.68
2023-02-19T09:21:00.831Z,68.82
2023-02-19T09:22:00.840Z,68.07
2023-02-19T09:23:00.820Z,68.93
2023-02-19T09:24:00.812Z,66.41
2023-02-19T09:25:00.794Z,68.54
2023-02-19T09:26:00.798Z,69.40
2023-02-19T09:27:00.804Z,67.70
2023-02-19T09:28:00.773Z,70.83
2023-02-19T09:29:00.759Z,67.60
2023-02-19T09:30:00.817Z,70.75
2023-02-19T09:31:00.768Z,68.98
2023-02-19T09:32:00.789Z,68.99
2023-02-19T09:33:00.725Z,69.44
2023-02-19T09:34:00.725Z,69.56
2023-02-19T09:35:00.696Z,69.40
2023-02-19T09:36:00.705Z,70.34
2023-02-19T09:37:00.746Z,69.26
2023-02-19T09:38:00.697Z,69.24
2023-02-19T09:39:00.674Z,68.14
2023-02-19T09:40:00.669Z,70.20
2023-02-19T09:41:00.670Z,69.72
2023-02-19T09:42:00.668Z,68.19
2023-02-19T09:43:03.711Z,67.54
2023-02-19T09:44:33.021Z,68.51
2023-02-19T09:45:00.614Z,67.66
2023-02-19T09:46:00.627Z,67.53
2023-02-19T09:47:00.647Z,69.76
2023-02-19T09:48:00.584Z,68.69
2023-02-19T09:49:00.568Z,68.43
2023-02-19T09:50:00.560Z,68.52
2023-02-19T09:51:00.554Z,68.05
2023-02-19T09:52:00.573Z,68.91
2023-02-19T09:53:00.543Z,68.61
2023-02-19T09:54:00.529Z,70.41
2023-02-19T09:55:00.542Z,67.25
2023-02-19T09:56:00.518Z,66.69
2023-02-19T09:57:00.581Z,68.15
2023-02-19T09:58:00.575Z,69.50
2023-02-19T09:59:00.478Z,68.43
2023-02-19T10:00:00.474Z,69.37
2023-02-19T10:01:00.468Z,68.07
2023-02-19T10:02:00.480Z,68.55
2023-02-19T10:03:00.432Z,67.15
2023-02-19T10:04:00.430Z,66.98
2023-02-19T10:05:00.430Z,68.20
2023-02-19T10:06:00.412Z,67.74
2023-02-19T10:07:00.425Z,69.85
2023-02-19T10:08:00.382Z,69.80
2023-02-19T10:09:00.377Z,69.60
2023-02-19T10:10:00.369Z,68.88
2023-02-19T10:11:00.356Z,69.10
2023-02-19T10:12:00.365Z,67.66
2023-02-19T10:13:00.345Z,67.75
2023-02-19T10:14:00.326Z,67.24
2023-02-19T10:15:00.316Z,67.47
2023-02-19T10:16:00.340Z,67.92
2023-02-19T10:17:00.314Z,68.12
2023-02-19T10:18:00.288Z,66.67
2023-02-19T10:19:00.276Z,67.63
2023-02-19T10:20:00.265Z,65.83
2023-02-19T10:21:00.241Z,67.89
2023-02-19T10:22:00.260Z,67.26
2023-02-19T10:23:00.230Z,67.07
2023-02-19T10:24:00.255Z,67.16
2023-02-19T10:25:00.211Z,68.08
2023-02-19T10:26:00.205Z,67.50
2023-02-19T10:27:00.205Z,67.00
2023-02-19T10:28:00.211Z,68.08
2023-02-19T10:29:00.180Z,67.68
2023-02-19T10:30:00.314Z,67.76
2023-02-19T10:31:00.235Z,68.22
2023-02-19T10:32:00.314Z,66.66
2023-02-19T10:33:00.165Z,67.79
2023-02-19T10:34:00.123Z,67.83
2023-02-19T10:35:00.111Z,69.63
2023-02-19T10:36:00.109Z,67.79
2023-02-19T10:37:00.117Z,70.47
2023-02-19T10:38:00.124Z,69.13
2023-02-19T10:39:00.086Z,68.84
2023-02-19T10:40:00.139Z,66.64
2023-02-19T10:41:00.086Z,66.50
2023-02-19T10:42:00.096Z,67.78
2023-02-19T10:43:00.045Z,68.40
2023-02-19T10:44:00.048Z,68.30
2023-02-19T10:45:00.020Z,68.97
2023-02-19T10:46:00.010Z,66.99
2023-02-19T10:47:00.054Z,67.05
2023-02-19T10:48:00.004Z,67.87
2023-02-19T10:49:00.001Z,68.21
2023-02-19T10:50:00.805Z,68.19
2023-02-19T10:50:59.964Z,68.76
2023-02-19T10:51:59.982Z,68.47
2023-02-19T10:52:59.952Z,69.25
2023-02-19T10:53:59.932Z,67.26
2023-02-19T10:54:59.926Z,67.05
2023-02-19T10:55:59.919Z,68.11
2023-02-19T10:56:59.923Z,67.07
2023-02-19T10:57:59.897Z,66.17
2023-02-19T10:58:59.909Z,66.08
2023-02-19T10:59:59.878Z,66.06
2023-02-19T11:00:59.865Z,66.93
2023-02-19T11:01:59.921Z,66.91
2023-02-19T11:02:59.844Z,66.85
2023-02-19T11:03:59.851Z,66.64
2023-02-19T11:04:59.820Z,67.43
2023-02-19T11:05:59.834Z,66.99
2023-02-19T11:06:59.877Z,67.38
2023-02-19T11:07:59.800Z,66.84
2023-02-19T11:08:59.786Z,65.37
2023-02-19T11:09:59.784Z,66.74
2023-02-19T11:10:59.762Z,65.91
2023-02-19T11:11:59.778Z,67.54
2023-02-19T11:12:59.756Z,67.89
2023-02-19T11:13:59.737Z,68.50
2023-02-19T11:14:59.729Z,66.86
2023-02-19T11:15:59.797Z,66.13
2023-02-19T11:16:59.720Z,65.87
2023-02-19T11:17:59.692Z,64.82
2023-02-19T11:18:59.680Z,65.23
2023-02-19T11:19:59.673Z,66.23
2023-02-19T11:20:59.669Z,66.90
2023-02-19T11:21:59.670Z,66.45
2023-02-19T11:22:59.639Z,65.88
2023-02-19T11:24:00.762Z,64.67
2023-02-19T11:25:00.629Z,66.20
2023-02-19T11:25:59.613Z,64.26
2023-02-19T11:26:59.628Z,66.19
2023-02-19T11:27:59.590Z,64.80
2023-02-19T11:28:59.608Z,66.78
2023-02-19T11:29:59.616Z,65.03
2023-02-19T11:30:59.659Z,67.71
2023-02-19T11:31:59.685Z,65.89
2023-02-19T11:32:59.538Z,66.43
2023-02-19T11:33:59.547Z,65.75
2023-02-19T11:34:59.549Z,65.33
2023-02-19T11:35:59.540Z,66.25
2023-02-19T11:36:59.553Z,66.62
2023-02-19T11:37:59.504Z,67.59
2023-02-19T11:38:59.495Z,65.80
2023-02-19T11:39:59.488Z,66.99
2023-02-19T11:40:59.472Z,67.56
2023-02-19T11:41:59.467Z,66.25
2023-02-19T11:42:59.469Z,67.18
2023-02-19T11:43:59.446Z,67.26
2023-02-19T11:44:59.437Z,68.33
2023-02-19T11:45:59.419Z,68.93
2023-02-19T11:46:59.419Z,69.25
2023-02-19T11:47:59.425Z,69.42
2023-02-19T11:48:59.391Z,69.39
2023-02-19T11:49:59.388Z,70.13
2023-02-19T11:50:59.422Z,70.25
2023-02-19T11:51:59.362Z,71.53
2023-02-19T11:52:59.378Z,71.10
2023-02-19T11:53:59.353Z,72.43
2023-02-19T11:54:59.332Z,70.55
2023-02-19T11:55:59.337Z,72.76
2023-02-19T11:56:59.312Z,71.44
2023-02-19T11:57:59.321Z,69.28
2023-02-19T11:59:00.923Z,69.43
2023-02-19T12:00:00.310Z,71.05
2023-02-19T12:00:59.274Z,70.52
2023-02-19T12:01:59.276Z,72.16
2023-02-19T12:02:59.280Z,69.52
2023-02-19T12:03:59.245Z,70.34
2023-02-19T12:04:59.257Z,69.86
2023-02-19T12:05:59.226Z,71.48
2023-02-19T12:06:59.218Z,70.71
2023-02-19T12:07:59.225Z,69.30
2023-02-19T12:08:59.201Z,70.11
2023-02-19T12:09:59.189Z,69.19
2023-02-19T12:10:59.178Z,70.99
2023-02-19T12:11:59.171Z,70.95
2023-02-19T12:12:59.185Z,69.97
2023-02-19T12:13:59.157Z,70.91
2023-02-19T12:14:59.147Z,70.47
2023-02-19T12:15:59.143Z,69.84
2023-02-19T12:16:59.118Z,69.64
2023-02-19T12:17:59.143Z,69.73
2023-02-19T12:18:59.097Z,70.14
2023-02-19T12:19:59.090Z,69.71
2023-02-19T12:20:59.134Z,68.43
2023-02-19T12:21:59.071Z,66.74
2023-02-19T12:22:59.080Z,68.43
2023-02-19T12:23:59.041Z,67.97
2023-02-19T12:24:59.035Z,68.49
2023-02-19T12:25:59.029Z,68.03
2023-02-19T12:27:00.020Z,68.25
2023-02-19T12:27:59.023Z,68.97
2023-02-19T12:28:59.007Z,68.44
2023-02-19T12:29:59.008Z,68.70
2023-02-19T12:30:58.992Z,68.59
2023-02-19T12:31:58.999Z,70.57
2023-02-19T12:32:58.969Z,69.31
2023-02-19T12:33:59.961Z,69.52
2023-02-19T12:34:58.949Z,69.81
2023-02-19T12:35:58.924Z,70.00
2023-02-19T12:36:58.923Z,70.23
2023-02-19T12:37:58.949Z,69.25
2023-02-19T12:38:58.903Z,70.84
2023-02-19T12:39:58.897Z,69.91
2023-02-19T12:40:58.883Z,71.31
2023-02-19T12:41:58.870Z,69.47
2023-02-19T12:42:58.873Z,70.32
2023-02-19T12:43:58.874Z,68.69
2023-02-19T12:44:58.853Z,69.99
2023-02-19T12:45:58.886Z,68.33
2023-02-19T12:46:58.826Z,69.24
2023-02-19T12:47:58.860Z,69.92
2023-02-19T12:48:58.796Z,69.80
2023-02-19T12:49:58.782Z,70.35
2023-02-19T12:50:58.775Z,70.04
2023-02-19T12:51:58.767Z,68.94